Time;durP1;ratioP1;P1;durP2;ratioP2;P2;SDS_P1;SDS_P2;PMS_P1;PMS_P2;Temp;Humidity;BMP_temperature;BMP_pressure;BME280_temperature;BME280_humidity;BME280_pressure;Samples;Min_cycle;Max_cycle;Signal;HPM_P1;HPM_P2
2023/02/19 00:01:37;;;;;;;18.60;17.10;;;;;;;8.74;80.85;98544.16;4992419;28;20121;-72
2023/02/19 00:04:12;;;;;;;17.15;15.85;;;;;;;8.68;80.75;98542.38;4976097;28;20030;-72
2023/02/19 00:06:37;;;;;;;16.80;15.50;;;;;;;8.76;80.68;98539.38;4982627;28;20034;-72
2023/02/19 00:09:03;;;;;;;16.20;14.73;;;;;;;8.77;80.18;98543.72;4991692;28;20484;-71
2023/02/19 00:11:31;;;;;;;17.17;15.98;;;;;;;8.74;80.28;98544.16;4993525;28;20081;-71
2023/02/19 00:13:57;;;;;;;16.70;15.38;;;;;;;8.78;80.14;98542.66;4975699;28;20913;-71
2023/02/19 00:16:31;;;;;;;16.63;15.27;;;;;;;8.77;80.29;98544.53;4992033;28;20033;-71
2023/02/19 00:18:57;;;;;;;15.65;14.45;;;;;;;8.75;79.62;98533.19;4991507;28;20040;-71
2023/02/19 00:21:23;;;;;;;16.40;15.15;;;;;;;8.79;80.12;98525.50;4991888;28;20026;-71
2023/02/19 00:23:53;;;;;;;15.23;14.02;;;;;;;8.74;80.35;98522.66;4985988;28;20085;-71
2023/02/19 00:26:19;;;;;;;16.50;15.20;;;;;;;8.71;80.38;98520.44;4991898;28;20038;-71
2023/02/19 00:28:47;;;;;;;15.15;13.95;;;;;;;8.78;79.49;98518.47;4991241;28;20167;-71
2023/02/19 00:31:29;;;;;;;16.42;15.18;;;;;;;8.72;80.02;98514.03;4989460;28;20393;-71
2023/02/19 00:33:57;;;;;;;18.33;16.85;;;;;;;8.70;80.54;98516.13;4991855;28;20121;-72
2023/02/19 00:36:23;;;;;;;18.92;17.45;;;;;;;8.73;80.50;98515.66;4975520;28;20121;-72
2023/02/19 00:38:49;;;;;;;19.83;18.33;;;;;;;8.63;80.77;98510.00;4974784;28;20117;-71
2023/02/19 00:41:19;;;;;;;18.58;17.15;;;;;;;8.68;80.62;98512.84;4991496;28;20022;-71
2023/02/19 00:43:54;;;;;;;18.27;16.85;;;;;;;8.60;80.88;98510.44;4975779;28;20042;-70
2023/02/19 00:46:34;;;;;;;20.60;19.20;;;;;;;8.57;81.44;98500.16;4975264;28;20037;-72
2023/02/19 00:49:00;;;;;;;19.52;18.13;;;;;;;8.60;81.88;98494.34;4974656;28;20038;-72
2023/02/19 00:51:28;;;;;;;21.58;19.98;;;;;;;8.53;81.42;98499.78;4975203;28;20036;-72
2023/02/19 00:53:54;;;;;;;19.92;18.52;;;;;;;8.58;81.73;98501.78;4975165;28;20042;-73
2023/02/19 00:56:19;;;;;;;21.58;20.10;;;;;;;8.47;81.88;98497.97;4991273;28;20029;-73
2023/02/19 00:58:45;;;;;;;22.55;20.90;;;;;;;8.51;82.67;98501.06;4990640;28;20049;-73
2023/02/19 01:01:11;;;;;;;26.25;24.45;;;;;;;8.53;82.30;98502.47;4975150;28;20032;-72
2023/02/19 01:03:37;;;;;;;26.45;24.65;;;;;;;8.51;82.54;98495.69;4990730;28;20038;-72
2023/02/19 01:06:03;;;;;;;27.08;25.15;;;;;;;8.43;83.02;98495.97;4952702;29;20035;-72
2023/02/19 01:08:32;;;;;;;28.90;27.00;;;;;;;8.43;83.68;98495.97;4962289;28;20042;-73
2023/02/19 01:10:59;;;;;;;30.65;28.73;;;;;;;8.46;83.21;98492.84;4991213;28;20022;-72
2023/02/19 01:13:25;;;;;;;30.65;28.52;;;;;;;8.45;83.12;98485.84;4990971;28;20114;-72
2023/02/19 01:15:51;;;;;;;32.35;30.35;;;;;;;8.43;83.35;98474.50;4974532;28;20032;-73
2023/02/19 01:18:16;;;;;;;30.45;28.48;;;;;;;8.34;83.02;98474.81;4991490;28;20089;-73
2023/02/19 01:20:43;;;;;;;33.10;30.77;;;;;;;8.42;83.30;98470.19;4990874;28;20064;-73
2023/02/19 01:23:10;;;;;;;33.78;31.65;;;;;;;8.40;83.26;98461.56;4961147;28;20046;-73
2023/02/19 01:25:38;;;;;;;31.60;29.52;;;;;;;8.31;83.35;98453.78;4979314;28;20473;-73
2023/02/19 01:28:03;;;;;;;33.00;30.70;;;;;;;8.26;83.84;98461.69;4990143;28;20034;-74
2023/02/19 01:30:28;;;;;;;32.35;30.15;;;;;;;8.30;83.38;98457.53;4990909;28;20432;-74
2023/02/19 01:32:54;;;;;;;34.00;31.77;;;;;;;8.29;83.92;98450.50;4945415;28;20145;-74
2023/02/19 01:35:19;;;;;;;36.72;34.42;;;;;;;8.19;84.71;98439.44;4990733;28;20023;-73
2023/02/19 01:37:46;;;;;;;39.13;36.72;;;;;;;8.24;84.66;98436.91;4977001;28;20126;-73
2023/02/19 01:40:11;;;;;;;37.20;34.97;;;;;;;8.24;84.37;98436.91;4990688;28;20141;-72
2023/02/19 01:42:41;;;;;;;40.85;38.25;;;;;;;8.19;84.48;98444.00;4990615;28;20030;-73
2023/02/19 01:45:28;;;;;;;41.42;38.83;;;;;;;8.21;85.41;98441.91;4974412;28;20034;-73
2023/02/19 01:48:01;;;;;;;40.92;38.53;;;;;;;8.16;85.17;98434.53;4970231;28;20044;-73
2023/02/19 01:50:29;;;;;;;41.25;38.75;;;;;;;8.15;85.17;98438.25;4966146;28;20072;-73
2023/02/19 01:52:55;;;;;;;45.58;42.75;;;;;;;8.08;85.39;98429.44;4990634;28;20030;-72
2023/02/19 01:55:20;;;;;;;47.15;44.22;;;;;;;8.14;85.22;98425.91;4974337;28;20042;-72
2023/02/19 01:57:47;;;;;;;46.85;43.88;;;;;;;8.14;85.25;98431.25;4969258;28;20018;-72
2023/02/19 02:00:16;;;;;;;44.70;41.97;;;;;;;8.18;85.85;98427.06;4966745;28;20035;-73
2023/02/19 02:02:44;;;;;;;46.67;43.72;;;;;;;8.16;86.22;98425.66;4972592;28;20078;-72
2023/02/19 02:05:30;;;;;;;43.90;41.05;;;;;;;8.07;85.14;98430.50;4966361;28;20031;-72
2023/02/19 02:10:40;;;;;;;43.55;40.85;;;;;;;8.13;84.85;98416.19;4973096;28;20035;-73
2023/02/19 02:13:06;;;;;;;43.83;41.10;;;;;;;8.24;85.45;98420.81;4964934;28;20109;-72
2023/02/19 02:15:39;;;;;;;41.45;38.85;;;;;;;8.16;85.05;98422.97;4990336;28;20058;-72
2023/02/19 02:18:10;;;;;;;46.60;43.70;;;;;;;8.08;86.07;98420.56;4973609;28;20045;-73
2023/02/19 02:21:08;;;;;;;47.08;44.28;;;;;;;8.00;86.30;98413.66;4990250;28;20408;-72
2023/02/19 02:23:49;;;;;;;47.47;44.67;;;;;;;8.11;86.17;98404.88;4991513;28;20118;-72
2023/02/19 02:26:24;;;;;;;47.85;45.00;;;;;;;8.02;85.61;98408.06;4974013;28;20042;-72
2023/02/19 02:29:00;;;;;;;49.70;46.78;;;;;;;8.07;86.01;98392.97;4989410;28;20038;-72
2023/02/19 02:31:34;;;;;;;44.15;41.58;;;;;;;8.02;85.61;98395.50;4990207;28;20031;-72
2023/02/19 02:34:07;;;;;;;43.58;40.97;;;;;;;8.14;84.81;98393.72;4990312;28;20038;-72
2023/02/19 02:36:36;;;;;;;42.42;39.92;;;;;;;8.07;85.47;98382.22;4973773;28;20049;-72
2023/02/19 02:39:07;;;;;;;42.03;39.53;;;;;;;8.09;85.34;98388.19;4992152;28;20112;-72
2023/02/19 02:41:41;;;;;;;43.47;41.05;;;;;;;8.09;85.27;98385.50;4972339;28;20041;-73
2023/02/19 02:44:06;;;;;;;41.42;38.95;;;;;;;8.07;85.10;98387.59;4971147;28;20037;-71
2023/02/19 02:46:34;;;;;;;41.35;38.88;;;;;;;8.14;85.72;98387.50;4967829;28;20116;-71
2023/02/19 02:49:16;;;;;;;39.40;37.03;;;;;;;8.05;85.18;98378.94;4979670;28;20037;-72
2023/02/19 02:51:46;;;;;;;38.25;35.92;;;;;;;8.25;84.61;98384.06;4954970;28;20062;-72
2023/02/19 02:57:13;;;;;;;40.20;37.70;;;;;;;8.05;85.35;98373.56;4966786;28;20026;-71
2023/02/19 02:59:45;;;;;;;41.03;38.40;;;;;;;8.15;84.99;98378.41;4978155;28;20062;-72
2023/02/19 03:02:23;;;;;;;39.60;37.28;;;;;;;8.04;84.39;98366.56;4977259;28;20404;-72
2023/02/19 03:07:41;;;;;;;38.30;36.00;;;;;;;8.03;85.62;98364.94;4992580;28;20038;-72
2023/02/19 03:10:10;;;;;;;36.53;34.33;;;;;;;8.12;85.22;98368.94;4993082;28;20156;-72
2023/02/19 03:20:57;;;;;;;36.25;33.95;;;;;;;8.28;84.07;98367.56;4979148;28;20508;-72
2023/02/19 03:26:02;;;;;;;33.83;31.63;;;;;;;8.18;84.17;98359.19;4974260;28;20121;-72
2023/02/19 03:26:11;;;;;;;34.08;31.98;;;;;;;8.23;83.91;98370.91;4988085;28;20034;-73
2023/02/19 03:31:30;;;;;;;32.30;30.15;;;;;;;8.23;83.85;98356.66;4975289;28;20178;-72
2023/02/19 03:34:09;;;;;;;30.20;28.30;;;;;;;8.25;83.90;98362.59;4977040;28;20030;-72
2023/02/19 03:36:39;;;;;;;30.48;28.55;;;;;;;8.22;83.62;98361.19;4992881;28;20113;-72
2023/02/19 03:39:07;;;;;;;32.90;31.00;;;;;;;8.14;84.21;98361.50;4976296;28;20077;-72
2023/02/19 03:41:40;;;;;;;32.05;30.05;;;;;;;8.19;83.61;98353.59;4992904;28;20019;-72
2023/02/19 03:44:20;;;;;;;30.95;29.15;;;;;;;8.17;83.82;98350.31;4976873;28;20156;-72
2023/02/19 03:46:52;;;;;;;31.65;29.65;;;;;;;8.23;84.43;98359.34;4993835;28;20385;-72
2023/02/19 03:49:23;;;;;;;29.48;27.58;;;;;;;8.38;83.90;98356.31;4976032;28;20089;-71
2023/02/19 03:51:54;;;;;;;28.02;26.33;;;;;;;8.24;84.10;98356.41;4967384;28;20037;-72
2023/02/19 03:54:30;;;;;;;30.83;28.83;;;;;;;8.15;83.59;98339.00;4973432;28;20030;-73
2023/02/19 03:57:07;;;;;;;27.33;25.55;;;;;;;8.27;83.52;98356.00;4959770;28;20117;-72
2023/02/19 04:00:03;;;;;;;27.52;25.73;;;;;;;8.22;83.39;98345.09;4976452;28;20082;-70
2023/02/19 04:03:01;;;;;;;28.40;26.80;;;;;;;8.24;84.01;98356.41;4992664;28;20050;-71
2023/02/19 04:05:32;;;;;;;29.85;27.98;;;;;;;8.23;83.83;98349.44;4974589;28;20511;-71
2023/02/19 04:08:10;;;;;;;29.58;27.75;;;;;;;8.26;84.05;98342.84;4964612;28;20034;-72
2023/02/19 04:10:41;;;;;;;27.73;26.15;;;;;;;8.27;82.50;98345.28;4976722;28;20034;-72
2023/02/19 04:13:15;;;;;;;27.48;25.77;;;;;;;8.29;83.78;98343.19;4976162;28;20125;-74
2023/02/19 04:15:42;;;;;;;28.17;26.40;;;;;;;8.25;83.46;98341.97;4979290;28;20030;-71
2023/02/19 04:18:11;;;;;;;27.02;25.40;;;;;;;8.26;83.35;98330.22;4991815;28;20022;-72
2023/02/19 04:20:39;;;;;;;28.77;26.92;;;;;;;8.27;83.55;98339.91;4992180;28;20030;-72
2023/02/19 04:23:05;;;;;;;25.92;24.42;;;;;;;8.31;83.05;98351.81;4991964;28;20373;-72
2023/02/19 04:25:31;;;;;;;23.95;22.45;;;;;;;8.39;82.16;98352.56;4979068;28;20046;-71
2023/02/19 04:27:57;;;;;;;21.67;20.38;;;;;;;8.37;82.87;98357.34;4991262;28;20054;-71
2023/02/19 04:30:23;;;;;;;20.60;19.30;;;;;;;8.38;82.70;98357.09;4992110;28;20429;-70
2023/02/19 04:32:49;;;;;;;19.13;17.92;;;;;;;8.38;82.30;98353.63;4973180;28;20072;-71
2023/02/19 04:35:14;;;;;;;20.55;19.25;;;;;;;8.37;82.45;98362.69;4993114;28;20050;-71
2023/02/19 04:37:39;;;;;;;20.17;18.88;;;;;;;8.33;82.43;98355.09;4991059;28;20018;-72
2023/02/19 04:40:05;;;;;;;18.70;17.50;;;;;;;8.42;82.31;98352.13;4991829;28;20109;-72
2023/02/19 04:42:30;;;;;;;18.73;17.52;;;;;;;8.36;81.99;98345.78;4975973;28;20501;-73
2023/02/19 04:44:56;;;;;;;19.15;17.85;;;;;;;8.37;82.57;98360.03;4992698;28;20061;-72
2023/02/19 04:47:21;;;;;;;17.90;16.70;;;;;;;8.39;82.40;98368.66;4992388;28;20037;-71
2023/02/19 04:49:47;;;;;;;17.60;16.52;;;;;;;8.44;81.52;98377.69;4994001;28;20548;-71
2023/02/19 04:52:12;;;;;;;15.98;14.98;;;;;;;8.44;81.86;98366.13;4992827;28;20030;-71
2023/02/19 04:54:37;;;;;;;17.10;16.00;;;;;;;8.40;81.76;98370.31;4994429;28;20567;-71
2023/02/19 04:57:03;;;;;;;17.77;16.67;;;;;;;8.38;81.51;98377.78;4991467;28;20057;-72
2023/02/19 04:59:28;;;;;;;13.43;12.55;;;;;;;8.49;81.02;98379.69;4992973;28;20039;-73
2023/02/19 05:01:53;;;;;;;16.42;15.52;;;;;;;8.41;81.42;98377.28;4990964;28;20539;-73
2023/02/19 05:04:19;;;;;;;17.80;16.70;;;;;;;8.30;82.69;98368.97;4975350;28;20489;-72
2023/02/19 05:06:44;;;;;;;17.17;16.10;;;;;;;8.43;81.84;98373.34;4991455;28;20049;-72
2023/02/19 05:09:10;;;;;;;15.88;14.77;;;;;;;8.37;81.71;98368.06;4974912;28;20072;-71
2023/02/19 05:11:35;;;;;;;17.95;16.88;;;;;;;8.34;81.53;98370.16;4992415;28;20156;-73
2023/02/19 05:14:01;;;;;;;20.90;19.60;;;;;;;8.32;83.26;98372.25;4991215;28;20500;-72
2023/02/19 05:16:26;;;;;;;19.80;18.70;;;;;;;8.33;82.62;98381.94;4992424;28;20030;-73
2023/02/19 05:18:51;;;;;;;20.85;19.45;;;;;;;8.30;82.61;98371.66;4991519;28;20030;-73
2023/02/19 05:21:17;;;;;;;20.27;19.08;;;;;;;8.36;82.23;98364.56;4958763;28;20022;-72
2023/02/19 05:23:42;;;;;;;20.63;19.50;;;;;;;8.30;82.90;98374.34;4986928;28;20934;-73
2023/02/19 05:26:11;;;;;;;21.75;20.45;;;;;;;8.30;83.58;98371.66;4983259;28;20026;-72
2023/02/19 05:28:37;;;;;;;21.42;20.23;;;;;;;8.19;83.01;98371.56;4991570;28;20073;-72
2023/02/19 05:31:05;;;;;;;26.02;24.60;;;;;;;8.16;84.77;98375.53;4990718;28;20457;-71
2023/02/19 05:33:30;;;;;;;29.45;27.85;;;;;;;8.09;85.69;98374.78;4989991;28;20408;-72
2023/02/19 05:35:56;;;;;;;33.50;31.73;;;;;;;8.06;85.52;98369.84;4990640;28;20062;-70
2023/02/19 05:38:22;;;;;;;35.50;33.70;;;;;;;7.97;85.64;98365.00;4990137;28;20118;-71
2023/02/19 05:40:48;;;;;;;36.80;34.90;;;;;;;8.04;85.98;98371.13;4974500;28;20037;-70
2023/02/19 05:43:14;;;;;;;33.47;31.63;;;;;;;8.12;85.43;98366.25;4990688;28;20436;-72
2023/02/19 05:45:39;;;;;;;32.70;31.00;;;;;;;8.07;85.56;98360.78;4990680;28;20396;-72
2023/02/19 05:48:06;;;;;;;32.60;30.90;;;;;;;8.05;84.91;98357.47;4990999;28;20035;-72
2023/02/19 05:50:33;;;;;;;30.15;28.55;;;;;;;8.12;84.21;98374.31;4990651;28;20029;-73
2023/02/19 05:53:10;;;;;;;27.75;26.23;;;;;;;8.16;84.66;98370.16;4990716;28;20034;-70
2023/02/19 05:55:35;;;;;;;26.80;25.38;;;;;;;8.16;83.73;98370.16;4990528;28;20664;-71
2023/02/19 05:58:01;;;;;;;23.92;22.73;;;;;;;8.25;83.77;98371.50;4991103;28;20049;-72
2023/02/19 06:00:27;;;;;;;24.40;23.10;;;;;;;8.26;83.42;98378.50;4990572;28;20172;-70
2023/02/19 06:02:53;;;;;;;23.33;21.83;;;;;;;8.18;83.40;98378.78;4990418;28;20030;-71
2023/02/19 06:05:18;;;;;;;21.42;20.33;;;;;;;8.27;83.53;98390.06;4973882;28;20037;-70
2023/02/19 06:07:44;;;;;;;18.38;17.38;;;;;;;8.28;83.13;98395.19;4973370;28;20547;-72
2023/02/19 06:10:11;;;;;;;19.15;18.05;;;;;;;8.32;82.88;98382.16;4974138;28;20129;-73
2023/02/19 06:12:36;;;;;;;21.10;19.95;;;;;;;8.28;82.86;98368.38;4976261;28;20030;-73
2023/02/19 06:15:03;;;;;;;21.42;20.23;;;;;;;8.25;83.16;98379.53;4995895;28;20042;-72
2023/02/19 06:17:29;;;;;;;18.23;17.20;;;;;;;8.33;82.32;98387.28;4977551;28;20030;-71
2023/02/19 06:19:54;;;;;;;20.10;18.90;;;;;;;8.28;82.99;98384.47;4995426;28;20038;-71
2023/02/19 06:22:21;;;;;;;18.42;17.40;;;;;;;8.28;82.88;98381.78;4995364;28;20022;-72
2023/02/19 06:24:46;;;;;;;17.77;16.80;;;;;;;8.28;82.77;98384.47;4981152;28;20117;-73
2023/02/19 06:27:12;;;;;;;21.20;20.00;;;;;;;8.29;82.29;98387.97;4993267;28;20529;-72
2023/02/19 06:29:37;;;;;;;92.20;84.95;;;;;;;8.33;82.81;98389.97;4994190;28;20108;-73
2023/02/19 06:32:04;;;;;;;16.98;15.98;;;;;;;8.33;82.15;98389.97;4992038;28;20053;-71
2023/02/19 06:34:29;;;;;;;23.65;22.35;;;;;;;8.40;82.64;98405.19;4993860;28;20042;-72
2023/02/19 06:36:55;;;;;;;14.35;13.55;;;;;;;8.38;82.51;98401.91;4976848;28;20037;-71
2023/02/19 06:39:20;;;;;;;14.60;13.73;;;;;;;8.37;81.45;98398.41;4994034;28;20038;-72
2023/02/19 06:41:46;;;;;;;14.60;13.70;;;;;;;8.42;81.57;98411.16;4995186;28;20085;-73
2023/02/19 06:44:11;;;;;;;13.73;13.02;;;;;;;8.31;82.18;98413.53;4994998;28;20117;-72
2023/02/19 06:46:36;;;;;;;14.50;13.57;;;;;;;8.38;82.10;98415.34;4994789;28;20112;-72
2023/02/19 06:49:05;;;;;;;12.98;12.27;;;;;;;8.42;81.17;98416.53;4994147;28;20117;-74
2023/02/19 06:51:31;;;;;;;12.27;11.57;;;;;;;8.39;81.47;98416.97;4977428;28;20062;-73
2023/02/19 06:53:58;;;;;;;11.20;10.50;;;;;;;8.43;81.31;98423.50;4994936;28;20042;-72
2023/02/19 06:56:25;;;;;;;11.18;10.55;;;;;;;8.41;81.72;98439.00;4977389;28;20030;-72
2023/02/19 06:58:52;;;;;;;11.27;10.68;;;;;;;8.42;81.07;98438.00;4994203;28;20396;-72
2023/02/19 07:01:18;;;;;;;10.63;10.02;;;;;;;8.46;81.17;98439.16;4993510;28;20039;-71
2023/02/19 07:03:43;;;;;;;9.40;8.80;;;;;;;8.47;80.78;98448.88;4993376;28;20034;-72
2023/02/19 07:06:08;;;;;;;9.90;9.30;;;;;;;8.41;81.24;98455.94;4987025;28;20642;-72
2023/02/19 07:08:34;;;;;;;9.48;8.98;;;;;;;8.45;80.76;98449.06;4986627;28;20046;-73
2023/02/19 07:10:59;;;;;;;10.20;9.50;;;;;;;8.42;81.09;98448.72;4993474;28;20061;-72
2023/02/19 07:13:25;;;;;;;12.00;11.30;;;;;;;8.40;80.71;98464.22;4977241;28;20161;-72
2023/02/19 07:15:51;;;;;;;11.60;11.00;;;;;;;8.39;81.89;98451.84;4986476;28;20109;-72
2023/02/19 07:18:17;;;;;;;11.65;10.95;;;;;;;8.46;80.83;98448.03;4986657;28;20512;-71
2023/02/19 07:20:42;;;;;;;10.73;10.13;;;;;;;8.44;80.31;98462.72;4986242;28;20451;-72
2023/02/19 07:23:08;;;;;;;10.80;10.20;;;;;;;8.44;81.28;98449.31;4988513;28;20053;-72
2023/02/19 07:25:33;;;;;;;11.10;10.50;;;;;;;8.43;81.05;98461.06;4976618;28;20388;-73
2023/02/19 07:27:59;;;;;;;9.82;9.30;;;;;;;8.47;81.24;98462.28;4976304;28;20038;-72
2023/02/19 07:30:24;;;;;;;10.43;9.73;;;;;;;8.48;80.64;98471.97;4994428;28;20032;-72
2023/02/19 07:32:50;;;;;;;10.00;9.45;;;;;;;8.46;80.45;98464.16;4993039;28;20121;-72
2023/02/19 07:35:15;;;;;;;9.65;9.05;;;;;;;8.57;80.32;98473.31;4992990;28;20105;-72
2023/02/19 07:37:40;;;;;;;9.48;8.98;;;;;;;8.49;80.16;98460.19;4976080;28;20034;-73
2023/02/19 07:40:06;;;;;;;9.50;8.70;;;;;;;8.51;80.55;98474.22;4958079;28;20511;-73
2023/02/19 07:42:31;;;;;;;9.95;9.35;;;;;;;8.49;80.41;98481.66;4985585;28;20038;-73
2023/02/19 07:44:57;;;;;;;10.27;9.57;;;;;;;8.50;80.16;98485.97;4970916;28;20033;-73
2023/02/19 07:47:23;;;;;;;9.43;8.77;;;;;;;8.51;80.55;98484.94;4973707;28;20039;-72
2023/02/19 07:49:48;;;;;;;8.73;8.23;;;;;;;8.55;80.53;98499.56;4975146;28;20026;-72
2023/02/19 07:52:13;;;;;;;8.00;7.50;;;;;;;8.57;80.44;98484.88;4993882;28;20113;-72
2023/02/19 07:54:39;;;;;;;9.68;9.10;;;;;;;8.50;80.32;98496.72;4993616;28;20481;-72
2023/02/19 07:57:04;;;;;;;11.45;10.82;;;;;;;8.46;82.54;98503.56;4992025;28;20112;-72
2023/02/19 07:59:29;;;;;;;15.90;15.00;;;;;;;8.29;82.94;98493.44;4976261;28;20038;-72
2023/02/19 08:04:39;;;;;;;17.67;16.77;;;;;;;8.41;83.19;98511.47;4968945;28;20490;-74
2023/02/19 08:07:04;;;;;;;18.48;17.58;;;;;;;8.43;82.41;98514.75;4991828;28;20105;-73
2023/02/19 08:09:30;;;;;;;17.35;16.45;;;;;;;8.44;82.78;98519.09;4985451;28;20027;-72
2023/02/19 08:14:40;;;;;;;19.60;18.63;;;;;;;8.27;82.41;98522.34;4992402;28;20488;-73
2023/02/19 08:17:05;;;;;;;19.38;18.40;;;;;;;8.31;83.21;98518.19;4975338;28;20058;-72
2023/02/19 08:19:30;;;;;;;17.92;17.02;;;;;;;8.39;82.69;98535.03;4992209;28;20038;-72
2023/02/19 08:21:56;;;;;;;14.93;14.13;;;;;;;8.42;81.65;98526.53;4992093;28;20121;-73
2023/02/19 08:24:21;;;;;;;13.95;13.15;;;;;;;8.47;82.04;98542.81;4983079;28;20445;-72
2023/02/19 08:26:46;;;;;;;12.73;11.93;;;;;;;8.46;81.66;98541.16;4990079;28;20049;-72
2023/02/19 08:29:12;;;;;;;11.25;10.55;;;;;;;8.51;80.84;98533.25;4993031;28;20061;-73
2023/02/19 08:31:37;;;;;;;11.70;10.93;;;;;;;8.56;81.40;98533.41;4972313;28;20101;-72
2023/02/19 08:34:03;;;;;;;9.75;9.18;;;;;;;8.68;80.20;98551.22;4977564;28;20034;-77
2023/02/19 08:36:28;;;;;;;7.10;6.70;;;;;;;8.69;79.02;98546.69;4990815;28;20366;-73
2023/02/19 08:38:54;;;;;;;7.72;7.00;;;;;;;8.67;79.74;98556.81;4991209;28;20061;-74
2023/02/19 08:41:19;;;;;;;8.98;8.38;;;;;;;8.61;80.24;98560.41;4993008;28;20076;-73
2023/02/19 08:43:45;;;;;;;8.23;7.63;;;;;;;8.72;79.24;98551.63;4975511;28;20479;-74
2023/02/19 08:46:11;;;;;;;6.88;6.47;;;;;;;8.72;79.53;98571.25;4972248;28;20091;-74
2023/02/19 08:48:37;;;;;;;7.53;7.03;;;;;;;8.74;79.27;98561.09;4988845;28;20105;-73
2023/02/19 08:51:07;;;;;;;6.20;5.80;;;;;;;8.82;79.24;98568.84;4991499;28;20101;-73
2023/02/19 08:53:33;;;;;;;6.75;6.22;;;;;;;8.77;78.34;98570.56;4971433;28;20537;-73
2023/02/19 08:56:04;;;;;;;5.82;5.40;;;;;;;8.82;78.78;98578.78;4973598;28;20085;-73
2023/02/19 08:58:31;;;;;;;5.50;5.10;;;;;;;8.92;78.75;98579.88;4974525;28;20480;-74
2023/02/19 09:00:57;;;;;;;5.35;4.85;;;;;;;8.99;78.01;98585.16;4975144;28;20033;-73
2023/02/19 09:03:22;;;;;;;4.50;4.13;;;;;;;8.95;77.03;98583.97;4975109;28;20038;-74
2023/02/19 09:05:47;;;;;;;4.70;4.30;;;;;;;8.99;76.76;98590.53;4992163;28;20112;-73
2023/02/19 09:08:14;;;;;;;4.90;4.50;;;;;;;8.94;77.97;98603.81;4984612;28;20034;-72
2023/02/19 09:10:39;;;;;;;4.35;4.03;;;;;;;8.95;77.62;98606.31;4975475;28;20026;-73
2023/02/19 09:13:05;;;;;;;6.55;5.82;;;;;;;9.03;77.89;98619.41;4975695;28;20041;-73
2023/02/19 09:15:32;;;;;;;4.90;4.40;;;;;;;9.03;76.94;98619.41;4993528;28;20480;-72
2023/02/19 09:17:57;;;;;;;4.05;3.65;;;;;;;9.00;76.11;98619.88;4990486;28;20030;-73
2023/02/19 09:20:23;;;;;;;3.75;3.35;;;;;;;8.93;77.38;98629.88;4990959;28;20165;-73
2023/02/19 09:22:48;;;;;;;4.22;3.63;;;;;;;8.92;76.92;98622.03;4990218;28;20062;-73
2023/02/19 09:25:13;;;;;;;4.70;4.20;;;;;;;8.80;77.64;98623.81;4984878;28;20026;-73
2023/02/19 09:27:39;;;;;;;5.30;4.80;;;;;;;8.86;78.86;98629.13;4973587;28;20112;-73
2023/02/19 09:30:05;;;;;;;4.90;4.50;;;;;;;8.86;79.17;98628.31;4974527;28;20073;-72
2023/02/19 09:32:31;;;;;;;5.80;5.40;;;;;;;8.82;79.15;98640.53;4987740;28;20038;-72
2023/02/19 09:34:56;;;;;;;6.45;5.95;;;;;;;8.76;79.78;98639.56;4970469;28;76832;-72
2023/02/19 09:37:26;;;;;;;6.85;6.35;;;;;;;8.83;79.71;98636.78;4989932;28;20492;-72
2023/02/19 09:39:52;;;;;;;7.53;7.03;;;;;;;8.78;80.21;98636.63;4966685;28;20081;-72
2023/02/19 09:42:20;;;;;;;9.63;8.93;;;;;;;8.83;81.19;98636.78;4972507;28;20030;-72
2023/02/19 09:44:50;;;;;;;10.13;9.52;;;;;;;8.69;81.77;98640.66;4967354;28;20042;-72
2023/02/19 09:47:24;;;;;;;12.52;11.73;;;;;;;8.61;81.96;98643.63;4984363;28;20038;-71
2023/02/19 09:49:59;;;;;;;13.82;13.00;;;;;;;8.59;82.92;98641.16;4977233;28;20100;-73
2023/02/19 09:52:48;;;;;;;13.95;12.82;;;;;;;8.54;82.41;98650.94;4991728;28;20503;-73
2023/02/19 09:55:19;;;;;;;14.50;13.70;;;;;;;8.49;83.30;98642.72;5006870;28;20034;-72
2023/02/19 09:57:45;;;;;;;18.60;17.63;;;;;;;8.50;84.39;98644.34;4975538;28;20026;-72
2023/02/19 10:00:11;;;;;;;20.02;18.95;;;;;;;8.43;84.80;98654.31;4980490;28;20535;-72
2023/02/19 10:02:36;;;;;;;22.98;21.75;;;;;;;8.42;84.66;98652.69;4988247;28;20118;-71
2023/02/19 10:05:02;;;;;;;24.98;23.77;;;;;;;8.42;84.45;98660.72;4988942;28;20084;-72
2023/02/19 10:07:41;;;;;;;27.52;25.70;;;;;;;8.46;83.99;98653.88;4988415;28;20030;-73
2023/02/19 10:10:12;;;;;;;23.52;22.10;;;;;;;8.43;84.33;98655.13;4989533;28;20497;-71
2023/02/19 10:12:40;;;;;;;29.17;27.35;;;;;;;8.52;85.11;98658.38;4991611;28;20080;-73
2023/02/19 10:15:14;;;;;;;27.40;25.88;;;;;;;8.48;84.82;98673.25;4974255;28;20033;-72
2023/02/19 10:17:40;;;;;;;23.83;22.60;;;;;;;8.50;84.01;98679.22;4978567;28;20030;-72
2023/02/19 10:20:05;;;;;;;22.35;21.15;;;;;;;8.47;84.30;98674.31;4991493;28;20084;-72
2023/02/19 10:22:32;;;;;;;20.83;19.83;;;;;;;8.48;83.82;98670.56;5001353;28;20436;-72
2023/02/19 10:24:58;;;;;;;23.88;22.58;;;;;;;8.51;83.83;98672.84;4956707;28;20031;-72
2023/02/19 10:27:27;;;;;;;22.40;21.20;;;;;;;8.47;84.29;98677.00;4989446;28;20034;-72
2023/02/19 10:29:52;;;;;;;21.77;20.60;;;;;;;8.59;83.12;98675.25;4973806;28;20074;-73
2023/02/19 10:32:23;;;;;;;22.67;21.48;;;;;;;8.64;84.08;98678.06;4986949;28;20548;-72
2023/02/19 10:35:13;;;;;;;20.65;19.55;;;;;;;8.72;83.90;98685.88;4990067;28;20038;-73
2023/02/19 10:37:44;;;;;;;21.10;19.80;;;;;;;8.83;82.80;98682.44;5006382;28;20035;-73
2023/02/19 10:40:18;;;;;;;16.98;15.98;;;;;;;9.00;83.28;98683.53;4981007;28;20074;-73
2023/02/19 10:42:48;;;;;;;16.25;15.35;;;;;;;8.83;81.42;98682.44;4974038;28;20086;-73
2023/02/19 10:45:34;;;;;;;17.90;16.98;;;;;;;8.97;82.66;98681.28;4990122;28;20045;-73
2023/02/19 10:47:59;;;;;;;15.50;14.50;;;;;;;9.10;80.85;98667.72;4989602;28;20069;-73
2023/02/19 10:50:36;;;;;;;15.30;14.30;;;;;;;9.45;81.05;98666.03;4991345;28;20034;-73
2023/02/19 10:53:01;;;;;;;9.57;8.98;;;;;;;9.54;80.52;98675.47;4969049;28;20445;-73
2023/02/19 10:55:34;;;;;;;10.27;9.35;;;;;;;10.02;79.93;98677.28;4998067;28;20026;-73
2023/02/19 10:58:27;;;;;;;10.15;9.35;;;;;;;9.85;79.16;98698.63;4982108;28;20027;-73
2023/02/19 11:01:18;;;;;;;9.20;8.55;;;;;;;9.63;79.95;98701.00;5005167;28;20046;-73
2023/02/19 11:03:44;;;;;;;8.25;7.55;;;;;;;9.46;80.73;98689.22;4979915;28;20670;-73
2023/02/19 11:06:12;;;;;;;12.25;11.35;;;;;;;9.22;80.74;98682.03;4987820;28;20041;-73
2023/02/19 11:08:54;;;;;;;13.43;12.63;;;;;;;9.35;81.58;98681.91;5002653;28;20062;-73
2023/02/19 11:11:31;;;;;;;12.10;11.40;;;;;;;9.18;81.09;98696.16;4990265;28;20596;-73
2023/02/19 11:13:57;;;;;;;15.70;14.70;;;;;;;9.29;82.21;98687.38;4991103;28;20046;-74
2023/02/19 11:16:23;;;;;;;11.77;11.13;;;;;;;9.37;81.41;98695.09;5017444;28;20026;-73
2023/02/19 11:18:55;;;;;;;10.45;9.82;;;;;;;9.37;80.51;98701.31;5002131;28;20042;-72
2023/02/19 11:21:31;;;;;;;9.63;9.05;;;;;;;9.39;80.16;98693.84;4985567;28;20472;-72
2023/02/19 11:23:56;;;;;;;10.75;10.07;;;;;;;9.35;80.36;98703.41;4982612;28;20053;-72
2023/02/19 11:26:24;;;;;;;7.15;6.43;;;;;;;9.22;79.63;98710.81;4981233;28;20109;-72
2023/02/19 11:29:01;;;;;;;6.25;5.85;;;;;;;9.24;79.01;98716.78;4976662;28;20038;-72
2023/02/19 11:31:30;;;;;;;6.20;5.80;;;;;;;9.30;79.22;98705.94;4990082;28;20042;-72
2023/02/19 11:34:20;;;;;;;4.90;4.20;;;;;;;9.27;78.70;98721.69;4973410;28;20053;-72
2023/02/19 11:36:45;;;;;;;4.72;4.20;;;;;;;9.23;77.94;98715.13;4993168;28;20050;-72
2023/02/19 11:39:14;;;;;;;5.28;4.78;;;;;;;9.29;78.43;98733.06;5008422;28;20022;-72
2023/02/19 11:42:11;;;;;;;6.50;5.95;;;;;;;9.33;78.70;98732.38;4992282;28;20057;-72
2023/02/19 11:44:58;;;;;;;5.65;5.22;;;;;;;9.43;78.86;98738.03;4993247;28;20046;-74
2023/02/19 11:47:36;;;;;;;6.32;5.93;;;;;;;9.43;78.72;98716.53;4983369;28;20166;-73
2023/02/19 11:50:08;;;;;;;7.55;6.95;;;;;;;9.40;79.15;98727.75;4990595;28;20034;-73
2023/02/19 11:52:48;;;;;;;6.15;5.65;;;;;;;9.48;78.75;98724.75;4991214;28;20441;-73
2023/02/19 11:55:28;;;;;;;5.28;4.80;;;;;;;9.36;78.33;98726.53;4975751;28;20057;-73
2023/02/19 11:58:22;;;;;;;5.70;5.20;;;;;;;9.39;77.31;98720.72;4967046;28;20065;-73
2023/02/19 12:00:54;;;;;;;5.13;4.65;;;;;;;9.42;76.99;98727.53;5008139;28;20405;-73
2023/02/19 12:03:39;;;;;;;4.90;4.07;;;;;;;9.37;77.50;98728.19;5008388;28;20034;-73